sensor_id;sensor_type;location;lat;lon;timestamp;P1;durP1;ratioP1;P2;durP2;ratioP2
23163;SDS011;31429;42.674;23.350;2024-01-15T00:00:22;106.13;;;62.80;;
23163;SDS011;31429;42.674;23.350;2024-01-15T00:01:23;70.97;;;42.83;;
23163;SDS011;31429;42.674;23.350;2024-01-15T00:02:24;71.80;;;43.03;;
23163;SDS011;31429;42.674;23.350;2024-01-15T00:03:25;79.87;;;50.17;;
23163;SDS011;31429;42.674;23.350;2024-01-15T00:04:26;98.35;;;56.88;;
23163;SDS011;31429;42.674;23.350;2024-01-15T00:05:27;101.83;;;57.93;;
23163;SDS011;31429;42.674;23.350;2024-01-15T00:06:27;86.53;;;50.90;;
23163;SDS011;31429;42.674;23.350;2024-01-15T00:07:28;73.23;;;44.93;;
23163;SDS011;31429;42.674;23.350;2024-01-15T00:08:29;77.00;;;47.33;;
23163;SDS011;31429;42.674;23.350;2024-01-15T00:09:30;96.77;;;56.90;;
23163;SDS011;31429;42.674;23.350;2024-01-15T00:10:36;68.77;;;41.83;;
23163;SDS011;31429;42.674;23.350;2024-01-15T00:11:42;72.60;;;42.92;;
23163;SDS011;31429;42.674;23.350;2024-01-15T00:12:42;106.25;;;62.05;;
23163;SDS011;31429;42.674;23.350;2024-01-15T00:13:43;108.13;;;61.50;;
23163;SDS011;31429;42.674;23.350;2024-01-15T00:14:44;91.93;;;53.40;;
23163;SDS011;31429;42.674;23.350;2024-01-15T00:15:45;87.17;;;53.30;;
23163;SDS011;31429;42.674;23.350;2024-01-15T00:16:46;93.53;;;54.47;;
23163;SDS011;31429;42.674;23.350;2024-01-15T00:17:46;85.10;;;50.97;;
23163;SDS011;31429;42.674;23.350;2024-01-15T00:18:47;121.83;;;68.30;;
23163;SDS011;31429;42.674;23.350;2024-01-15T00:19:48;122.67;;;72.33;;
23163;SDS011;31429;42.674;23.350;2024-01-15T00:20:49;116.47;;;70.03;;
23163;SDS011;31429;42.674;23.350;2024-01-15T00:21:50;87.80;;;51.93;;
23163;SDS011;31429;42.674;23.350;2024-01-15T00:22:50;104.40;;;59.57;;
23163;SDS011;31429;42.674;23.350;2024-01-15T00:23:51;109.73;;;64.07;;
23163;SDS011;31429;42.674;23.350;2024-01-15T00:24:52;125.97;;;73.07;;
23163;SDS011;31429;42.674;23.350;2024-01-15T00:25:53;166.00;;;95.00;;
23163;SDS011;31429;42.674;23.350;2024-01-15T00:26:55;129.03;;;75.23;;
23163;SDS011;31429;42.674;23.350;2024-01-15T00:27:56;121.78;;;70.97;;
23163;SDS011;31429;42.674;23.350;2024-01-15T00:28:57;89.90;;;53.50;;
23163;SDS011;31429;42.674;23.350;2024-01-15T00:29:58;110.57;;;62.97;;
23163;SDS011;31429;42.674;23.350;2024-01-15T00:30:58;148.00;;;86.83;;
23163;SDS011;31429;42.674;23.350;2024-01-15T00:31:59;150.37;;;91.20;;
23163;SDS011;31429;42.674;23.350;2024-01-15T00:33:00;153.90;;;93.70;;
23163;SDS011;31429;42.674;23.350;2024-01-15T00:34:01;146.83;;;87.90;;
23163;SDS011;31429;42.674;23.350;2024-01-15T00:35:02;196.55;;;116.32;;
23163;SDS011;31429;42.674;23.350;2024-01-15T00:36:03;230.98;;;132.55;;
23163;SDS011;31429;42.674;23.350;2024-01-15T00:37:05;200.35;;;120.00;;
23163;SDS011;31429;42.674;23.350;2024-01-15T00:38:07;140.52;;;86.78;;
23163;SDS011;31429;42.674;23.350;2024-01-15T00:39:07;150.97;;;90.30;;
23163;SDS011;31429;42.674;23.350;2024-01-15T00:40:10;162.48;;;98.50;;
23163;SDS011;31429;42.674;23.350;2024-01-15T00:41:11;193.63;;;114.85;;
23163;SDS011;31429;42.674;23.350;2024-01-15T00:42:14;217.02;;;128.75;;
23163;SDS011;31429;42.674;23.350;2024-01-15T00:43:15;201.55;;;122.13;;
23163;SDS011;31429;42.674;23.350;2024-01-15T00:44:18;214.27;;;128.07;;
23163;SDS011;31429;42.674;23.350;2024-01-15T00:45:19;208.40;;;122.63;;
23163;SDS011;31429;42.674;23.350;2024-01-15T00:46:19;183.80;;;113.37;;
23163;SDS011;31429;42.674;23.350;2024-01-15T00:47:20;212.17;;;130.93;;
23163;SDS011;31429;42.674;23.350;2024-01-15T00:48:21;198.60;;;119.20;;
23163;SDS011;31429;42.674;23.350;2024-01-15T00:49:22;179.80;;;105.20;;
23163;SDS011;31429;42.674;23.350;2024-01-15T00:50:23;182.03;;;111.07;;
23163;SDS011;31429;42.674;23.350;2024-01-15T00:51:24;174.87;;;106.90;;
23163;SDS011;31429;42.674;23.350;2024-01-15T00:52:25;191.80;;;117.18;;
23163;SDS011;31429;42.674;23.350;2024-01-15T00:53:25;191.93;;;114.70;;
23163;SDS011;31429;42.674;23.350;2024-01-15T00:54:26;185.73;;;111.87;;
23163;SDS011;31429;42.674;23.350;2024-01-15T00:55:28;175.17;;;107.77;;
23163;SDS011;31429;42.674;23.350;2024-01-15T00:56:29;189.55;;;109.18;;
23163;SDS011;31429;42.674;23.350;2024-01-15T00:57:31;178.90;;;106.40;;
23163;SDS011;31429;42.674;23.350;2024-01-15T00:58:33;170.00;;;103.63;;
23163;SDS011;31429;42.674;23.350;2024-01-15T00:59:33;174.47;;;109.60;;
23163;SDS011;31429;42.674;23.350;2024-01-15T01:00:37;164.57;;;96.83;;
23163;SDS011;31429;42.674;23.350;2024-01-15T01:01:38;162.25;;;98.88;;
23163;SDS011;31429;42.674;23.350;2024-01-15T01:02:43;193.45;;;115.05;;
23163;SDS011;31429;42.674;23.350;2024-01-15T01:03:43;201.53;;;119.90;;
23163;SDS011;31429;42.674;23.350;2024-01-15T01:04:44;187.23;;;109.30;;
23163;SDS011;31429;42.674;23.350;2024-01-15T01:05:48;181.40;;;110.97;;
23163;SDS011;31429;42.674;23.350;2024-01-15T01:06:48;178.40;;;106.50;;
23163;SDS011;31429;42.674;23.350;2024-01-15T01:07:49;166.73;;;99.50;;
23163;SDS011;31429;42.674;23.350;2024-01-15T01:08:50;181.13;;;109.33;;
23163;SDS011;31429;42.674;23.350;2024-01-15T01:09:51;169.73;;;100.37;;
23163;SDS011;31429;42.674;23.350;2024-01-15T01:10:52;162.27;;;98.60;;
23163;SDS011;31429;42.674;23.350;2024-01-15T01:11:52;161.27;;;94.30;;
23163;SDS011;31429;42.674;23.350;2024-01-15T01:12:55;160.97;;;98.70;;
23163;SDS011;31429;42.674;23.350;2024-01-15T01:13:55;171.25;;;100.60;;
23163;SDS011;31429;42.674;23.350;2024-01-15T01:14:57;167.68;;;99.80;;
23163;SDS011;31429;42.674;23.350;2024-01-15T01:15:57;153.10;;;89.50;;
23163;SDS011;31429;42.674;23.350;2024-01-15T01:16:58;157.60;;;98.10;;
23163;SDS011;31429;42.674;23.350;2024-01-15T01:17:59;149.63;;;91.50;;
23163;SDS011;31429;42.674;23.350;2024-01-15T01:19:00;147.67;;;89.00;;
23163;SDS011;31429;42.674;23.350;2024-01-15T01:20:00;143.37;;;85.47;;
23163;SDS011;31429;42.674;23.350;2024-01-15T01:21:04;118.43;;;70.38;;
23163;SDS011;31429;42.674;23.350;2024-01-15T01:22:05;113.50;;;69.90;;
23163;SDS011;31429;42.674;23.350;2024-01-15T01:23:06;113.70;;;68.68;;
23163;SDS011;31429;42.674;23.350;2024-01-15T01:24:07;125.07;;;72.13;;
23163;SDS011;31429;42.674;23.350;2024-01-15T01:25:08;110.70;;;68.40;;
23163;SDS011;31429;42.674;23.350;2024-01-15T01:26:09;106.53;;;64.07;;
23163;SDS011;31429;42.674;23.350;2024-01-15T01:27:10;107.97;;;66.77;;
23163;SDS011;31429;42.674;23.350;2024-01-15T01:28:12;113.13;;;69.93;;
23163;SDS011;31429;42.674;23.350;2024-01-15T01:29:13;109.43;;;67.45;;
23163;SDS011;31429;42.674;23.350;2024-01-15T01:30:14;117.30;;;74.00;;
23163;SDS011;31429;42.674;23.350;2024-01-15T01:31:14;125.97;;;74.17;;
23163;SDS011;31429;42.674;23.350;2024-01-15T01:32:16;119.07;;;75.38;;
23163;SDS011;31429;42.674;23.350;2024-01-15T01:33:17;125.50;;;80.93;;
23163;SDS011;31429;42.674;23.350;2024-01-15T01:34:18;135.50;;;80.60;;
23163;SDS011;31429;42.674;23.350;2024-01-15T01:35:19;139.77;;;83.88;;
23163;SDS011;31429;42.674;23.350;2024-01-15T01:36:20;141.87;;;86.70;;
23163;SDS011;31429;42.674;23.350;2024-01-15T01:37:21;166.43;;;99.67;;
23163;SDS011;31429;42.674;23.350;2024-01-15T01:38:22;162.50;;;97.53;;
23163;SDS011;31429;42.674;23.350;2024-01-15T01:39:23;163.27;;;98.30;;
23163;SDS011;31429;42.674;23.350;2024-01-15T01:40:23;151.50;;;93.97;;
23163;SDS011;31429;42.674;23.350;2024-01-15T01:41:24;139.97;;;88.63;;
23163;SDS011;31429;42.674;23.350;2024-01-15T01:42:25;137.60;;;82.30;;
23163;SDS011;31429;42.674;23.350;2024-01-15T01:43:27;146.48;;;88.20;;
23163;SDS011;31429;42.674;23.350;2024-01-15T01:44:28;141.98;;;87.05;;
23163;SDS011;31429;42.674;23.350;2024-01-15T01:45:29;135.20;;;82.77;;
23163;SDS011;31429;42.674;23.350;2024-01-15T01:46:30;136.03;;;82.03;;
23163;SDS011;31429;42.674;23.350;2024-01-15T01:47:31;126.45;;;77.93;;
23163;SDS011;31429;42.674;23.350;2024-01-15T01:48:32;121.37;;;75.40;;
23163;SDS011;31429;42.674;23.350;2024-01-15T01:49:34;124.25;;;78.10;;
23163;SDS011;31429;42.674;23.350;2024-01-15T01:50:35;128.63;;;75.82;;
23163;SDS011;31429;42.674;23.350;2024-01-15T01:51:36;116.17;;;68.23;;
23163;SDS011;31429;42.674;23.350;2024-01-15T01:52:39;101.25;;;65.45;;
23163;SDS011;31429;42.674;23.350;2024-01-15T01:53:40;101.20;;;62.47;;
23163;SDS011;31429;42.674;23.350;2024-01-15T01:54:44;107.82;;;64.28;;
23163;SDS011;31429;42.674;23.350;2024-01-15T01:55:45;105.47;;;65.97;;
23163;SDS011;31429;42.674;23.350;2024-01-15T01:56:48;112.95;;;66.68;;
23163;SDS011;31429;42.674;23.350;2024-01-15T01:57:51;117.15;;;68.43;;
23163;SDS011;31429;42.674;23.350;2024-01-15T01:58:53;107.10;;;67.20;;
23163;SDS011;31429;42.674;23.350;2024-01-15T01:59:54;114.00;;;69.15;;
23163;SDS011;31429;42.674;23.350;2024-01-15T02:00:55;108.32;;;66.97;;
23163;SDS011;31429;42.674;23.350;2024-01-15T02:01:57;103.07;;;62.78;;
23163;SDS011;31429;42.674;23.350;2024-01-15T02:02:59;93.47;;;59.80;;
23163;SDS011;31429;42.674;23.350;2024-01-15T02:04:00;94.53;;;56.58;;
23163;SDS011;31429;42.674;23.350;2024-01-15T02:05:01;98.47;;;56.07;;
23163;SDS011;31429;42.674;23.350;2024-01-15T02:06:24;97.60;;;57.53;;
23163;SDS011;31429;42.674;23.350;2024-01-15T02:07:25;90.63;;;53.10;;
23163;SDS011;31429;42.674;23.350;2024-01-15T02:08:26;91.33;;;51.87;;
23163;SDS011;31429;42.674;23.350;2024-01-15T02:09:27;90.53;;;52.67;;
23163;SDS011;31429;42.674;23.350;2024-01-15T02:10:28;78.80;;;50.70;;
23163;SDS011;31429;42.674;23.350;2024-01-15T02:11:28;85.43;;;51.83;;
23163;SDS011;31429;42.674;23.350;2024-01-15T02:12:29;82.90;;;51.53;;
23163;SDS011;31429;42.674;23.350;2024-01-15T02:13:30;83.37;;;51.30;;
23163;SDS011;31429;42.674;23.350;2024-01-15T02:14:32;82.77;;;48.87;;
23163;SDS011;31429;42.674;23.350;2024-01-15T02:15:33;85.38;;;48.97;;
23163;SDS011;31429;42.674;23.350;2024-01-15T02:16:34;84.25;;;50.72;;
23163;SDS011;31429;42.674;23.350;2024-01-15T02:18:57;83.55;;;50.42;;
23163;SDS011;31429;42.674;23.350;2024-01-15T02:19:57;79.37;;;49.30;;
23163;SDS011;31429;42.674;23.350;2024-01-15T02:20:58;86.07;;;47.13;;
23163;SDS011;31429;42.674;23.350;2024-01-15T02:21:59;79.07;;;46.33;;
23163;SDS011;31429;42.674;23.350;2024-01-15T02:23:04;78.00;;;48.27;;
23163;SDS011;31429;42.674;23.350;2024-01-15T02:24:08;80.78;;;47.45;;
23163;SDS011;31429;42.674;23.350;2024-01-15T02:25:09;80.90;;;45.43;;
23163;SDS011;31429;42.674;23.350;2024-01-15T02:26:10;80.07;;;48.42;;
23163;SDS011;31429;42.674;23.350;2024-01-15T02:27:11;77.97;;;47.00;;
23163;SDS011;31429;42.674;23.350;2024-01-15T02:28:12;76.67;;;47.30;;
23163;SDS011;31429;42.674;23.350;2024-01-15T02:29:14;74.55;;;44.80;;
23163;SDS011;31429;42.674;23.350;2024-01-15T02:30:15;71.68;;;45.38;;
23163;SDS011;31429;42.674;23.350;2024-01-15T02:31:17;73.97;;;44.53;;
23163;SDS011;31429;42.674;23.350;2024-01-15T02:32:18;71.77;;;43.70;;
23163;SDS011;31429;42.674;23.350;2024-01-15T02:33:18;75.33;;;43.20;;
23163;SDS011;31429;42.674;23.350;2024-01-15T02:34:19;71.83;;;44.03;;
23163;SDS011;31429;42.674;23.350;2024-01-15T02:35:20;76.03;;;43.57;;
23163;SDS011;31429;42.674;23.350;2024-01-15T02:36:21;71.20;;;44.07;;
23163;SDS011;31429;42.674;23.350;2024-01-15T02:37:22;73.50;;;43.23;;
23163;SDS011;31429;42.674;23.350;2024-01-15T02:38:24;75.13;;;41.97;;
23163;SDS011;31429;42.674;23.350;2024-01-15T02:39:24;64.80;;;42.72;;
23163;SDS011;31429;42.674;23.350;2024-01-15T02:40:25;65.23;;;39.73;;
23163;SDS011;31429;42.674;23.350;2024-01-15T02:41:26;70.93;;;41.40;;
23163;SDS011;31429;42.674;23.350;2024-01-15T02:42:27;74.27;;;40.00;;
23163;SDS011;31429;42.674;23.350;2024-01-15T02:43:28;72.57;;;40.30;;
23163;SDS011;31429;42.674;23.350;2024-01-15T02:44:28;61.03;;;36.67;;
23163;SDS011;31429;42.674;23.350;2024-01-15T02:45:29;62.33;;;37.13;;
23163;SDS011;31429;42.674;23.350;2024-01-15T02:46:30;66.13;;;37.57;;
23163;SDS011;31429;42.674;23.350;2024-01-15T02:47:31;60.27;;;37.07;;
23163;SDS011;31429;42.674;23.350;2024-01-15T02:48:32;62.73;;;38.47;;
23163;SDS011;31429;42.674;23.350;2024-01-15T02:49:34;59.00;;;36.67;;
23163;SDS011;31429;42.674;23.350;2024-01-15T02:50:35;41.70;;;24.30;;
23163;SDS011;31429;42.674;23.350;2024-01-15T02:51:36;67.13;;;35.77;;
23163;SDS011;31429;42.674;23.350;2024-01-15T02:52:37;54.63;;;34.50;;
23163;SDS011;31429;42.674;23.350;2024-01-15T02:53:39;63.20;;;38.13;;
23163;SDS011;31429;42.674;23.350;2024-01-15T02:54:40;60.42;;;36.78;;
23163;SDS011;31429;42.674;23.350;2024-01-15T02:55:41;59.93;;;38.00;;
23163;SDS011;31429;42.674;23.350;2024-01-15T02:56:42;66.00;;;38.47;;
23163;SDS011;31429;42.674;23.350;2024-01-15T02:57:43;65.20;;;37.80;;
23163;SDS011;31429;42.674;23.350;2024-01-15T02:58:44;60.43;;;38.93;;
23163;SDS011;31429;42.674;23.350;2024-01-15T02:59:44;63.73;;;37.90;;
23163;SDS011;31429;42.674;23.350;2024-01-15T03:00:45;65.00;;;40.07;;
23163;SDS011;31429;42.674;23.350;2024-01-15T03:01:46;63.53;;;39.20;;
23163;SDS011;31429;42.674;23.350;2024-01-15T03:02:47;63.23;;;37.23;;
23163;SDS011;31429;42.674;23.350;2024-01-15T03:03:50;63.40;;;40.67;;
23163;SDS011;31429;42.674;23.350;2024-01-15T03:04:54;65.40;;;40.57;;
23163;SDS011;31429;42.674;23.350;2024-01-15T03:05:56;63.40;;;41.72;;
23163;SDS011;31429;42.674;23.350;2024-01-15T03:06:57;64.18;;;42.10;;
23163;SDS011;31429;42.674;23.350;2024-01-15T03:07:57;68.77;;;40.37;;
23163;SDS011;31429;42.674;23.350;2024-01-15T03:09:00;58.83;;;38.80;;
23163;SDS011;31429;42.674;23.350;2024-01-15T03:10:00;64.40;;;40.97;;
23163;SDS011;31429;42.674;23.350;2024-01-15T03:11:02;67.95;;;41.08;;
23163;SDS011;31429;42.674;23.350;2024-01-15T03:12:03;61.55;;;39.67;;
23163;SDS011;31429;42.674;23.350;2024-01-15T03:13:04;66.63;;;42.75;;
23163;SDS011;31429;42.674;23.350;2024-01-15T03:14:05;68.57;;;42.20;;
23163;SDS011;31429;42.674;23.350;2024-01-15T03:15:05;111.10;;;65.30;;
23163;SDS011;31429;42.674;23.350;2024-01-15T03:16:06;87.68;;;50.97;;
23163;SDS011;31429;42.674;23.350;2024-01-15T03:17:07;87.50;;;51.87;;
23163;SDS011;31429;42.674;23.350;2024-01-15T03:18:10;85.55;;;51.47;;
23163;SDS011;31429;42.674;23.350;2024-01-15T03:19:11;85.90;;;51.90;;
23163;SDS011;31429;42.674;23.350;2024-01-15T03:20:11;84.37;;;51.07;;
23163;SDS011;31429;42.674;23.350;2024-01-15T03:21:12;75.57;;;46.53;;
23163;SDS011;31429;42.674;23.350;2024-01-15T03:22:13;74.10;;;46.63;;
23163;SDS011;31429;42.674;23.350;2024-01-15T03:23:15;83.18;;;51.00;;
23163;SDS011;31429;42.674;23.350;2024-01-15T03:24:26;84.27;;;48.13;;
23163;SDS011;31429;42.674;23.350;2024-01-15T03:25:27;71.88;;;41.92;;
23163;SDS011;31429;42.674;23.350;2024-01-15T03:26:28;65.60;;;40.83;;
23163;SDS011;31429;42.674;23.350;2024-01-15T03:27:28;68.33;;;41.27;;
23163;SDS011;31429;42.674;23.350;2024-01-15T03:28:29;69.07;;;41.90;;
23163;SDS011;31429;42.674;23.350;2024-01-15T03:29:30;70.80;;;44.40;;
23163;SDS011;31429;42.674;23.350;2024-01-15T03:30:31;78.13;;;47.43;;
23163;SDS011;31429;42.674;23.350;2024-01-15T03:31:32;78.90;;;49.87;;
23163;SDS011;31429;42.674;23.350;2024-01-15T03:32:33;84.80;;;51.90;;
23163;SDS011;31429;42.674;23.350;2024-01-15T03:33:34;83.67;;;49.73;;
23163;SDS011;31429;42.674;23.350;2024-01-15T03:34:34;80.30;;;47.73;;
23163;SDS011;31429;42.674;23.350;2024-01-15T03:35:35;69.33;;;42.47;;
23163;SDS011;31429;42.674;23.350;2024-01-15T03:36:36;77.60;;;45.80;;
23163;SDS011;31429;42.674;23.350;2024-01-15T03:37:37;77.73;;;47.00;;
23163;SDS011;31429;42.674;23.350;2024-01-15T03:38:39;74.10;;;46.17;;
23163;SDS011;31429;42.674;23.350;2024-01-15T03:39:43;74.53;;;44.88;;
23163;SDS011;31429;42.674;23.350;2024-01-15T03:40:43;87.22;;;50.55;;
23163;SDS011;31429;42.674;23.350;2024-01-15T03:41:44;77.70;;;48.97;;
23163;SDS011;31429;42.674;23.350;2024-01-15T03:42:45;75.23;;;46.23;;
23163;SDS011;31429;42.674;23.350;2024-01-15T03:43:46;77.47;;;45.03;;
23163;SDS011;31429;42.674;23.350;2024-01-15T03:44:47;87.90;;;53.47;;
23163;SDS011;31429;42.674;23.350;2024-01-15T03:45:47;89.03;;;53.87;;
23163;SDS011;31429;42.674;23.350;2024-01-15T03:46:48;73.93;;;45.83;;
23163;SDS011;31429;42.674;23.350;2024-01-15T03:47:49;78.27;;;48.77;;
23163;SDS011;31429;42.674;23.350;2024-01-15T03:48:50;83.90;;;51.83;;
23163;SDS011;31429;42.674;23.350;2024-01-15T03:49:50;84.43;;;52.10;;
23163;SDS011;31429;42.674;23.350;2024-01-15T03:50:51;85.53;;;50.83;;
23163;SDS011;31429;42.674;23.350;2024-01-15T03:51:52;77.53;;;47.13;;
23163;SDS011;31429;42.674;23.350;2024-01-15T03:52:56;83.20;;;50.43;;
23163;SDS011;31429;42.674;23.350;2024-01-15T03:53:57;83.93;;;51.08;;
23163;SDS011;31429;42.674;23.350;2024-01-15T03:54:59;77.82;;;50.03;;
23163;SDS011;31429;42.674;23.350;2024-01-15T03:56:00;76.78;;;47.42;;
23163;SDS011;31429;42.674;23.350;2024-01-15T03:57:00;83.17;;;51.03;;
23163;SDS011;31429;42.674;23.350;2024-01-15T03:58:01;84.40;;;49.97;;
23163;SDS011;31429;42.674;23.350;2024-01-15T03:59:02;83.17;;;51.83;;
23163;SDS011;31429;42.674;23.350;2024-01-15T04:00:03;84.97;;;50.33;;
23163;SDS011;31429;42.674;23.350;2024-01-15T04:01:07;83.03;;;49.10;;
23163;SDS011;31429;42.674;23.350;2024-01-15T04:02:09;81.97;;;48.03;;
23163;SDS011;31429;42.674;23.350;2024-01-15T04:03:10;77.83;;;45.40;;
23163;SDS011;31429;42.674;23.350;2024-01-15T04:04:10;79.37;;;47.30;;
23163;SDS011;31429;42.674;23.350;2024-01-15T04:05:11;88.00;;;50.50;;
23163;SDS011;31429;42.674;23.350;2024-01-15T04:06:12;86.60;;;52.30;;
23163;SDS011;31429;42.674;23.350;2024-01-15T04:07:13;104.60;;;61.17;;
23163;SDS011;31429;42.674;23.350;2024-01-15T04:08:14;111.00;;;66.90;;
23163;SDS011;31429;42.674;23.350;2024-01-15T04:09:14;152.90;;;90.70;;
23163;SDS011;31429;42.674;23.350;2024-01-15T04:10:17;166.83;;;96.93;;
23163;SDS011;31429;42.674;23.350;2024-01-15T04:11:18;168.23;;;98.18;;
23163;SDS011;31429;42.674;23.350;2024-01-15T04:12:19;90.57;;;54.13;;
23163;SDS011;31429;42.674;23.350;2024-01-15T04:13:19;88.80;;;54.10;;
23163;SDS011;31429;42.674;23.350;2024-01-15T04:14:20;98.33;;;55.77;;
23163;SDS011;31429;42.674;23.350;2024-01-15T04:15:21;78.63;;;47.13;;
23163;SDS011;31429;42.674;23.350;2024-01-15T04:16:22;79.97;;;48.78;;
23163;SDS011;31429;42.674;23.350;2024-01-15T04:17:23;77.60;;;45.80;;
23163;SDS011;31429;42.674;23.350;2024-01-15T04:18:24;83.90;;;48.93;;
23163;SDS011;31429;42.674;23.350;2024-01-15T04:19:25;83.37;;;51.63;;
23163;SDS011;31429;42.674;23.350;2024-01-15T04:20:26;87.93;;;52.63;;
23163;SDS011;31429;42.674;23.350;2024-01-15T04:21:26;95.85;;;56.22;;
23163;SDS011;31429;42.674;23.350;2024-01-15T04:22:27;82.67;;;48.67;;
23163;SDS011;31429;42.674;23.350;2024-01-15T04:23:28;82.80;;;49.43;;
23163;SDS011;31429;42.674;23.350;2024-01-15T04:24:31;83.23;;;51.10;;
23163;SDS011;31429;42.674;23.350;2024-01-15T04:25:34;119.40;;;72.50;;
23163;SDS011;31429;42.674;23.350;2024-01-15T04:26:34;203.77;;;118.18;;
23163;SDS011;31429;42.674;23.350;2024-01-15T04:27:35;207.63;;;107.90;;
23163;SDS011;31429;42.674;23.350;2024-01-15T04:28:36;136.30;;;71.07;;
23163;SDS011;31429;42.674;23.350;2024-01-15T04:29:37;156.53;;;82.27;;
23163;SDS011;31429;42.674;23.350;2024-01-15T04:30:39;131.20;;;77.30;;
23163;SDS011;31429;42.674;23.350;2024-01-15T04:31:40;76.90;;;47.30;;
23163;SDS011;31429;42.674;23.350;2024-01-15T04:32:40;117.93;;;68.47;;
23163;SDS011;31429;42.674;23.350;2024-01-15T04:33:41;92.83;;;58.03;;
23163;SDS011;31429;42.674;23.350;2024-01-15T04:34:42;68.73;;;43.73;;
23163;SDS011;31429;42.674;23.350;2024-01-15T04:35:43;93.97;;;57.47;;
23163;SDS011;31429;42.674;23.350;2024-01-15T04:36:43;94.00;;;57.20;;
23163;SDS011;31429;42.674;23.350;2024-01-15T04:37:44;93.97;;;58.47;;
23163;SDS011;31429;42.674;23.350;2024-01-15T04:38:45;114.80;;;68.63;;
23163;SDS011;31429;42.674;23.350;2024-01-15T04:39:46;110.37;;;65.60;;
23163;SDS011;31429;42.674;23.350;2024-01-15T04:40:48;105.87;;;67.67;;
23163;SDS011;31429;42.674;23.350;2024-01-15T04:41:49;103.28;;;63.03;;
23163;SDS011;31429;42.674;23.350;2024-01-15T04:42:50;88.43;;;53.13;;
23163;SDS011;31429;42.674;23.350;2024-01-15T04:43:51;79.83;;;46.87;;
23163;SDS011;31429;42.674;23.350;2024-01-15T04:44:51;69.33;;;43.40;;
23163;SDS011;31429;42.674;23.350;2024-01-15T04:45:52;65.73;;;40.17;;
23163;SDS011;31429;42.674;23.350;2024-01-15T04:46:53;72.90;;;44.37;;
23163;SDS011;31429;42.674;23.350;2024-01-15T04:47:54;88.17;;;55.63;;
23163;SDS011;31429;42.674;23.350;2024-01-15T04:48:56;85.95;;;51.67;;
23163;SDS011;31429;42.674;23.350;2024-01-15T04:49:57;84.17;;;50.17;;
23163;SDS011;31429;42.674;23.350;2024-01-15T04:50:58;76.50;;;46.53;;
23163;SDS011;31429;42.674;23.350;2024-01-15T04:51:59;84.35;;;51.22;;
23163;SDS011;31429;42.674;23.350;2024-01-15T04:53:00;66.47;;;41.60;;
23163;SDS011;31429;42.674;23.350;2024-01-15T04:54:01;64.57;;;40.30;;
23163;SDS011;31429;42.674;23.350;2024-01-15T04:55:02;68.13;;;42.27;;
23163;SDS011;31429;42.674;23.350;2024-01-15T04:56:04;83.93;;;51.42;;
23163;SDS011;31429;42.674;23.350;2024-01-15T04:57:06;85.82;;;53.08;;
23163;SDS011;31429;42.674;23.350;2024-01-15T04:58:07;76.63;;;48.08;;
23163;SDS011;31429;42.674;23.350;2024-01-15T04:59:07;92.20;;;55.10;;
23163;SDS011;31429;42.674;23.350;2024-01-15T05:00:09;83.93;;;50.50;;
23163;SDS011;31429;42.674;23.350;2024-01-15T05:01:10;85.10;;;52.80;;
23163;SDS011;31429;42.674;23.350;2024-01-15T05:02:11;87.30;;;55.23;;
23163;SDS011;31429;42.674;23.350;2024-01-15T05:03:12;73.30;;;46.93;;
23163;SDS011;31429;42.674;23.350;2024-01-15T05:04:13;70.40;;;43.90;;
23163;SDS011;31429;42.674;23.350;2024-01-15T05:05:14;63.03;;;42.20;;
23163;SDS011;31429;42.674;23.350;2024-01-15T05:06:15;82.00;;;50.40;;
23163;SDS011;31429;42.674;23.350;2024-01-15T05:07:15;72.65;;;48.50;;
23163;SDS011;31429;42.674;23.350;2024-01-15T05:08:16;76.33;;;47.63;;
23163;SDS011;31429;42.674;23.350;2024-01-15T05:09:17;70.83;;;45.33;;
23163;SDS011;31429;42.674;23.350;2024-01-15T05:10:18;67.80;;;40.23;;
23163;SDS011;31429;42.674;23.350;2024-01-15T05:11:20;65.33;;;41.67;;
23163;SDS011;31429;42.674;23.350;2024-01-15T05:12:21;71.82;;;45.55;;
23163;SDS011;31429;42.674;23.350;2024-01-15T05:13:22;75.60;;;45.55;;
23163;SDS011;31429;42.674;23.350;2024-01-15T05:14:23;64.90;;;39.97;;
23163;SDS011;31429;42.674;23.350;2024-01-15T05:15:24;69.97;;;41.50;;
23163;SDS011;31429;42.674;23.350;2024-01-15T05:16:25;71.78;;;42.78;;
23163;SDS011;31429;42.674;23.350;2024-01-15T05:17:26;69.20;;;44.13;;
23163;SDS011;31429;42.674;23.350;2024-01-15T05:18:26;72.80;;;46.33;;
23163;SDS011;31429;42.674;23.350;2024-01-15T05:19:27;71.10;;;45.43;;
23163;SDS011;31429;42.674;23.350;2024-01-15T05:20:28;76.03;;;48.23;;
23163;SDS011;31429;42.674;23.350;2024-01-15T05:21:29;64.87;;;41.30;;
23163;SDS011;31429;42.674;23.350;2024-01-15T05:22:29;76.57;;;45.37;;
23163;SDS011;31429;42.674;23.350;2024-01-15T05:23:30;68.60;;;43.07;;
23163;SDS011;31429;42.674;23.350;2024-01-15T05:24:31;67.70;;;44.63;;
23163;SDS011;31429;42.674;23.350;2024-01-15T05:25:32;70.40;;;41.33;;
23163;SDS011;31429;42.674;23.350;2024-01-15T05:26:34;64.63;;;39.83;;
23163;SDS011;31429;42.674;23.350;2024-01-15T05:27:35;65.85;;;40.28;;
23163;SDS011;31429;42.674;23.350;2024-01-15T05:28:36;61.47;;;40.00;;
23163;SDS011;31429;42.674;23.350;2024-01-15T05:29:36;68.73;;;43.00;;
23163;SDS011;31429;42.674;23.350;2024-01-15T05:30:37;69.33;;;43.00;;
23163;SDS011;31429;42.674;23.350;2024-01-15T05:31:38;67.80;;;41.80;;
23163;SDS011;31429;42.674;23.350;2024-01-15T05:32:39;67.60;;;41.90;;
23163;SDS011;31429;42.674;23.350;2024-01-15T05:33:40;65.97;;;41.87;;
23163;SDS011;31429;42.674;23.350;2024-01-15T05:34:41;62.50;;;39.30;;
23163;SDS011;31429;42.674;23.350;2024-01-15T05:35:41;67.37;;;39.47;;
23163;SDS011;31429;42.674;23.350;2024-01-15T05:36:42;65.22;;;40.40;;
23163;SDS011;31429;42.674;23.350;2024-01-15T05:37:44;68.47;;;43.13;;
23163;SDS011;31429;42.674;23.350;2024-01-15T05:38:45;63.70;;;42.70;;
23163;SDS011;31429;42.674;23.350;2024-01-15T05:39:46;71.65;;;43.15;;
23163;SDS011;31429;42.674;23.350;2024-01-15T05:40:47;66.60;;;39.50;;
23163;SDS011;31429;42.674;23.350;2024-01-15T05:41:49;59.97;;;38.80;;
23163;SDS011;31429;42.674;23.350;2024-01-15T05:42:50;66.18;;;41.13;;
23163;SDS011;31429;42.674;23.350;2024-01-15T05:43:51;65.57;;;41.33;;
23163;SDS011;31429;42.674;23.350;2024-01-15T05:44:52;68.70;;;44.33;;
23163;SDS011;31429;42.674;23.350;2024-01-15T05:45:52;67.93;;;42.83;;
23163;SDS011;31429;42.674;23.350;2024-01-15T05:46:53;74.13;;;43.70;;
23163;SDS011;31429;42.674;23.350;2024-01-15T05:47:54;69.55;;;44.28;;
23163;SDS011;31429;42.674;23.350;2024-01-15T05:48:56;72.38;;;44.35;;
23163;SDS011;31429;42.674;23.350;2024-01-15T05:49:56;74.27;;;46.60;;
23163;SDS011;31429;42.674;23.350;2024-01-15T05:50:58;77.22;;;47.00;;
23163;SDS011;31429;42.674;23.350;2024-01-15T05:51:59;79.15;;;48.17;;